sensor_id;sensor_type;location;lat;lon;timestamp;P1;durP1;ratioP1;P2;durP2;ratioP2
36989;SDS011;22898;52.102;5.776;2023-11-21T00:01:49;10.00;;;4.80;;
36989;SDS011;22898;52.102;5.776;2023-11-21T00:04:14;8.90;;;4.90;;
36989;SDS011;22898;52.102;5.776;2023-11-21T00:06:40;7.95;;;4.15;;
36989;SDS011;22898;52.102;5.776;2023-11-21T00:09:06;7.05;;;4.38;;
36989;SDS011;22898;52.102;5.776;2023-11-21T00:11:33;5.50;;;3.42;;
36989;SDS011;22898;52.102;5.776;2023-11-21T00:13:59;6.50;;;3.00;;
36989;SDS011;22898;52.102;5.776;2023-11-21T00:16:24;8.27;;;4.00;;
36989;SDS011;22898;52.102;5.776;2023-11-21T00:18:50;8.30;;;3.63;;
36989;SDS011;22898;52.102;5.776;2023-11-21T00:21:16;10.57;;;4.53;;
36989;SDS011;22898;52.102;5.776;2023-11-21T00:23:42;9.60;;;4.47;;
36989;SDS011;22898;52.102;5.776;2023-11-21T00:26:08;9.52;;;4.28;;
36989;SDS011;22898;52.102;5.776;2023-11-21T00:28:33;10.02;;;4.30;;
36989;SDS011;22898;52.102;5.776;2023-11-21T00:30:59;11.40;;;4.97;;
36989;SDS011;22898;52.102;5.776;2023-11-21T00:33:24;9.77;;;4.88;;
36989;SDS011;22898;52.102;5.776;2023-11-21T00:35:50;11.30;;;4.85;;
36989;SDS011;22898;52.102;5.776;2023-11-21T00:38:16;8.18;;;4.72;;
36989;SDS011;22898;52.102;5.776;2023-11-21T00:40:44;18.50;;;6.15;;
36989;SDS011;22898;52.102;5.776;2023-11-21T00:43:10;9.05;;;3.83;;
36989;SDS011;22898;52.102;5.776;2023-11-21T00:45:35;8.95;;;3.75;;
36989;SDS011;22898;52.102;5.776;2023-11-21T00:48:01;9.57;;;4.93;;
36989;SDS011;22898;52.102;5.776;2023-11-21T00:50:29;24.58;;;6.35;;
36989;SDS011;22898;52.102;5.776;2023-11-21T00:52:55;11.57;;;4.88;;
36989;SDS011;22898;52.102;5.776;2023-11-21T00:55:21;12.57;;;5.35;;
36989;SDS011;22898;52.102;5.776;2023-11-21T00:57:47;9.85;;;5.10;;
36989;SDS011;22898;52.102;5.776;2023-11-21T01:00:13;13.05;;;5.30;;
36989;SDS011;22898;52.102;5.776;2023-11-21T01:02:41;10.88;;;5.30;;
36989;SDS011;22898;52.102;5.776;2023-11-21T01:05:06;14.82;;;5.20;;
36989;SDS011;22898;52.102;5.776;2023-11-21T01:07:33;10.65;;;5.95;;
36989;SDS011;22898;52.102;5.776;2023-11-21T01:09:58;12.35;;;4.90;;
36989;SDS011;22898;52.102;5.776;2023-11-21T01:12:24;11.60;;;5.22;;
36989;SDS011;22898;52.102;5.776;2023-11-21T01:14:50;11.00;;;5.38;;
36989;SDS011;22898;52.102;5.776;2023-11-21T01:17:16;15.75;;;5.78;;
36989;SDS011;22898;52.102;5.776;2023-11-21T01:19:43;12.45;;;5.00;;
36989;SDS011;22898;52.102;5.776;2023-11-21T01:22:08;10.00;;;4.97;;
36989;SDS011;22898;52.102;5.776;2023-11-21T01:24:34;15.40;;;5.53;;
36989;SDS011;22898;52.102;5.776;2023-11-21T01:26:59;11.65;;;5.10;;
36989;SDS011;22898;52.102;5.776;2023-11-21T01:29:25;10.85;;;4.80;;
36989;SDS011;22898;52.102;5.776;2023-11-21T01:31:51;10.70;;;5.25;;
36989;SDS011;22898;52.102;5.776;2023-11-21T01:34:16;13.27;;;6.00;;
36989;SDS011;22898;52.102;5.776;2023-11-21T01:36:42;14.77;;;5.72;;
36989;SDS011;22898;52.102;5.776;2023-11-21T01:39:08;12.88;;;5.20;;
36989;SDS011;22898;52.102;5.776;2023-11-21T01:41:36;9.45;;;5.00;;
36989;SDS011;22898;52.102;5.776;2023-11-21T01:44:02;13.13;;;5.38;;
36989;SDS011;22898;52.102;5.776;2023-11-21T01:46:27;14.70;;;5.95;;
36989;SDS011;22898;52.102;5.776;2023-11-21T01:48:54;14.15;;;4.57;;
36989;SDS011;22898;52.102;5.776;2023-11-21T01:51:19;11.27;;;5.07;;
36989;SDS011;22898;52.102;5.776;2023-11-21T01:53:45;9.75;;;4.82;;
36989;SDS011;22898;52.102;5.776;2023-11-21T01:56:11;11.65;;;5.28;;
36989;SDS011;22898;52.102;5.776;2023-11-21T01:58:38;14.98;;;6.18;;
36989;SDS011;22898;52.102;5.776;2023-11-21T02:01:04;11.95;;;5.53;;
36989;SDS011;22898;52.102;5.776;2023-11-21T02:03:30;11.75;;;5.63;;
36989;SDS011;22898;52.102;5.776;2023-11-21T02:05:56;21.48;;;6.13;;
36989;SDS011;22898;52.102;5.776;2023-11-21T02:08:21;19.55;;;7.13;;
36989;SDS011;22898;52.102;5.776;2023-11-21T02:10:47;18.48;;;6.65;;
36989;SDS011;22898;52.102;5.776;2023-11-21T02:13:13;16.48;;;6.72;;
36989;SDS011;22898;52.102;5.776;2023-11-21T02:15:38;15.73;;;6.75;;
36989;SDS011;22898;52.102;5.776;2023-11-21T02:18:04;17.48;;;7.53;;
36989;SDS011;22898;52.102;5.776;2023-11-21T02:20:31;14.95;;;7.03;;
36989;SDS011;22898;52.102;5.776;2023-11-21T02:23:00;17.65;;;6.60;;
36989;SDS011;22898;52.102;5.776;2023-11-21T02:25:27;15.98;;;6.90;;
36989;SDS011;22898;52.102;5.776;2023-11-21T02:27:54;19.38;;;7.40;;
36989;SDS011;22898;52.102;5.776;2023-11-21T02:30:21;16.27;;;5.95;;
36989;SDS011;22898;52.102;5.776;2023-11-21T02:32:50;18.77;;;6.78;;
36989;SDS011;22898;52.102;5.776;2023-11-21T02:35:18;16.23;;;7.63;;
36989;SDS011;22898;52.102;5.776;2023-11-21T02:37:46;17.83;;;6.60;;
36989;SDS011;22898;52.102;5.776;2023-11-21T02:40:15;13.07;;;6.63;;
36989;SDS011;22898;52.102;5.776;2023-11-21T02:42:45;14.52;;;6.72;;
36989;SDS011;22898;52.102;5.776;2023-11-21T02:45:15;13.25;;;6.43;;
36989;SDS011;22898;52.102;5.776;2023-11-21T02:47:45;17.30;;;6.88;;
36989;SDS011;22898;52.102;5.776;2023-11-21T02:50:12;14.32;;;5.68;;
36989;SDS011;22898;52.102;5.776;2023-11-21T02:52:38;12.57;;;5.93;;
36989;SDS011;22898;52.102;5.776;2023-11-21T02:55:05;13.13;;;4.90;;
36989;SDS011;22898;52.102;5.776;2023-11-21T02:57:32;16.17;;;5.95;;
36989;SDS011;22898;52.102;5.776;2023-11-21T02:59:58;16.27;;;6.03;;
36989;SDS011;22898;52.102;5.776;2023-11-21T03:02:25;12.05;;;5.07;;
36989;SDS011;22898;52.102;5.776;2023-11-21T03:04:50;11.50;;;6.20;;
36989;SDS011;22898;52.102;5.776;2023-11-21T03:07:16;12.05;;;5.70;;
36989;SDS011;22898;52.102;5.776;2023-11-21T03:09:44;17.45;;;5.80;;
36989;SDS011;22898;52.102;5.776;2023-11-21T03:12:10;10.10;;;5.05;;
36989;SDS011;22898;52.102;5.776;2023-11-21T03:14:37;10.13;;;4.93;;
36989;SDS011;22898;52.102;5.776;2023-11-21T03:17:03;13.80;;;6.35;;
36989;SDS011;22898;52.102;5.776;2023-11-21T03:19:29;10.63;;;4.60;;
36989;SDS011;22898;52.102;5.776;2023-11-21T03:21:55;13.02;;;5.95;;
36989;SDS011;22898;52.102;5.776;2023-11-21T03:24:21;9.82;;;4.95;;
36989;SDS011;22898;52.102;5.776;2023-11-21T03:26:47;9.75;;;5.13;;
36989;SDS011;22898;52.102;5.776;2023-11-21T03:29:13;12.75;;;5.50;;
36989;SDS011;22898;52.102;5.776;2023-11-21T03:31:40;11.20;;;5.57;;
36989;SDS011;22898;52.102;5.776;2023-11-21T03:34:05;14.98;;;5.63;;
36989;SDS011;22898;52.102;5.776;2023-11-21T03:36:31;12.15;;;5.93;;
36989;SDS011;22898;52.102;5.776;2023-11-21T03:38:57;12.57;;;5.30;;
36989;SDS011;22898;52.102;5.776;2023-11-21T03:41:22;12.35;;;4.65;;
36989;SDS011;22898;52.102;5.776;2023-11-21T03:43:48;10.43;;;4.85;;
36989;SDS011;22898;52.102;5.776;2023-11-21T03:46:13;9.32;;;5.03;;
36989;SDS011;22898;52.102;5.776;2023-11-21T03:48:39;11.80;;;5.32;;
36989;SDS011;22898;52.102;5.776;2023-11-21T03:51:05;6.97;;;4.57;;
36989;SDS011;22898;52.102;5.776;2023-11-21T03:53:31;12.98;;;4.63;;
36989;SDS011;22898;52.102;5.776;2023-11-21T03:55:57;10.63;;;5.07;;
36989;SDS011;22898;52.102;5.776;2023-11-21T03:58:23;12.85;;;5.40;;
36989;SDS011;22898;52.102;5.776;2023-11-21T04:00:48;9.68;;;5.38;;
36989;SDS011;22898;52.102;5.776;2023-11-21T04:03:14;11.80;;;5.03;;
36989;SDS011;22898;52.102;5.776;2023-11-21T04:05:40;14.40;;;6.32;;
36989;SDS011;22898;52.102;5.776;2023-11-21T04:08:06;8.57;;;4.43;;
36989;SDS011;22898;52.102;5.776;2023-11-21T04:10:32;10.25;;;4.90;;
36989;SDS011;22898;52.102;5.776;2023-11-21T04:12:57;8.98;;;5.18;;
36989;SDS011;22898;52.102;5.776;2023-11-21T04:15:23;11.98;;;5.32;;
36989;SDS011;22898;52.102;5.776;2023-11-21T04:17:49;14.73;;;6.00;;
36989;SDS011;22898;52.102;5.776;2023-11-21T04:20:14;19.75;;;8.60;;
36989;SDS011;22898;52.102;5.776;2023-11-21T04:22:40;18.25;;;7.88;;
36989;SDS011;22898;52.102;5.776;2023-11-21T04:25:09;20.23;;;7.85;;
36989;SDS011;22898;52.102;5.776;2023-11-21T04:27:36;26.40;;;9.40;;
36989;SDS011;22898;52.102;5.776;2023-11-21T04:30:03;18.20;;;7.25;;
36989;SDS011;22898;52.102;5.776;2023-11-21T04:32:30;16.02;;;7.53;;
36989;SDS011;22898;52.102;5.776;2023-11-21T04:34:55;11.80;;;6.03;;
36989;SDS011;22898;52.102;5.776;2023-11-21T04:37:21;12.30;;;5.55;;
36989;SDS011;22898;52.102;5.776;2023-11-21T04:39:47;11.68;;;5.78;;
36989;SDS011;22898;52.102;5.776;2023-11-21T04:42:13;12.10;;;5.95;;
36989;SDS011;22898;52.102;5.776;2023-11-21T04:44:38;10.30;;;5.22;;
36989;SDS011;22898;52.102;5.776;2023-11-21T04:47:06;9.95;;;5.00;;
36989;SDS011;22898;52.102;5.776;2023-11-21T04:49:32;10.77;;;5.68;;
36989;SDS011;22898;52.102;5.776;2023-11-21T04:51:58;12.30;;;5.43;;
36989;SDS011;22898;52.102;5.776;2023-11-21T04:54:24;12.52;;;5.22;;
36989;SDS011;22898;52.102;5.776;2023-11-21T04:56:49;11.50;;;6.55;;
36989;SDS011;22898;52.102;5.776;2023-11-21T04:59:15;13.77;;;4.97;;
36989;SDS011;22898;52.102;5.776;2023-11-21T05:01:41;15.55;;;5.45;;
36989;SDS011;22898;52.102;5.776;2023-11-21T05:04:15;7.63;;;4.00;;
36989;SDS011;22898;52.102;5.776;2023-11-21T05:06:40;9.07;;;4.22;;
36989;SDS011;22898;52.102;5.776;2023-11-21T05:09:06;10.80;;;5.10;;
36989;SDS011;22898;52.102;5.776;2023-11-21T05:11:36;10.25;;;5.15;;
36989;SDS011;22898;52.102;5.776;2023-11-21T05:14:02;9.75;;;4.45;;
36989;SDS011;22898;52.102;5.776;2023-11-21T05:16:29;9.13;;;4.60;;
36989;SDS011;22898;52.102;5.776;2023-11-21T05:18:55;9.77;;;5.15;;
36989;SDS011;22898;52.102;5.776;2023-11-21T05:21:28;11.85;;;4.97;;
36989;SDS011;22898;52.102;5.776;2023-11-21T05:23:56;10.07;;;4.40;;
36989;SDS011;22898;52.102;5.776;2023-11-21T05:26:21;9.55;;;4.75;;
36989;SDS011;22898;52.102;5.776;2023-11-21T05:28:47;11.48;;;5.03;;
36989;SDS011;22898;52.102;5.776;2023-11-21T05:31:12;9.05;;;4.10;;
36989;SDS011;22898;52.102;5.776;2023-11-21T05:33:38;9.68;;;4.65;;
36989;SDS011;22898;52.102;5.776;2023-11-21T05:36:04;11.13;;;4.85;;
36989;SDS011;22898;52.102;5.776;2023-11-21T05:38:29;8.68;;;5.22;;
36989;SDS011;22898;52.102;5.776;2023-11-21T05:40:55;11.00;;;5.00;;
36989;SDS011;22898;52.102;5.776;2023-11-21T05:43:20;9.95;;;4.40;;
36989;SDS011;22898;52.102;5.776;2023-11-21T05:45:46;8.52;;;4.13;;
36989;SDS011;22898;52.102;5.776;2023-11-21T05:48:12;19.25;;;6.20;;
36989;SDS011;22898;52.102;5.776;2023-11-21T05:50:37;8.02;;;4.57;;
36989;SDS011;22898;52.102;5.776;2023-11-21T05:53:03;8.45;;;4.43;;
36989;SDS011;22898;52.102;5.776;2023-11-21T05:55:29;15.52;;;5.55;;
36989;SDS011;22898;52.102;5.776;2023-11-21T05:57:54;10.88;;;4.53;;
36989;SDS011;22898;52.102;5.776;2023-11-21T06:00:20;11.80;;;4.57;;
36989;SDS011;22898;52.102;5.776;2023-11-21T06:02:47;14.57;;;6.90;;
36989;SDS011;22898;52.102;5.776;2023-11-21T06:05:15;28.50;;;12.55;;
36989;SDS011;22898;52.102;5.776;2023-11-21T06:07:42;20.58;;;9.80;;
36989;SDS011;22898;52.102;5.776;2023-11-21T06:10:08;16.52;;;8.63;;
36989;SDS011;22898;52.102;5.776;2023-11-21T06:12:37;11.05;;;4.93;;
36989;SDS011;22898;52.102;5.776;2023-11-21T06:15:05;9.75;;;5.07;;
36989;SDS011;22898;52.102;5.776;2023-11-21T06:17:33;13.25;;;5.15;;
36989;SDS011;22898;52.102;5.776;2023-11-21T06:20:02;9.85;;;4.50;;
36989;SDS011;22898;52.102;5.776;2023-11-21T06:22:34;10.93;;;5.13;;
36989;SDS011;22898;52.102;5.776;2023-11-21T06:25:00;11.02;;;4.32;;
36989;SDS011;22898;52.102;5.776;2023-11-21T06:27:27;11.55;;;5.88;;
36989;SDS011;22898;52.102;5.776;2023-11-21T06:29:53;15.23;;;7.38;;
36989;SDS011;22898;52.102;5.776;2023-11-21T06:32:19;12.15;;;6.15;;
36989;SDS011;22898;52.102;5.776;2023-11-21T06:34:47;11.35;;;5.00;;
36989;SDS011;22898;52.102;5.776;2023-11-21T06:37:13;10.18;;;3.92;;
36989;SDS011;22898;52.102;5.776;2023-11-21T06:39:38;10.32;;;4.50;;
36989;SDS011;22898;52.102;5.776;2023-11-21T06:42:04;9.77;;;4.43;;
36989;SDS011;22898;52.102;5.776;2023-11-21T06:44:30;7.90;;;3.80;;
36989;SDS011;22898;52.102;5.776;2023-11-21T06:46:58;9.65;;;4.72;;
36989;SDS011;22898;52.102;5.776;2023-11-21T06:49:24;15.20;;;5.13;;
36989;SDS011;22898;52.102;5.776;2023-11-21T06:51:50;10.95;;;5.75;;
36989;SDS011;22898;52.102;5.776;2023-11-21T06:54:16;11.40;;;4.78;;
36989;SDS011;22898;52.102;5.776;2023-11-21T06:56:42;9.65;;;4.60;;
36989;SDS011;22898;52.102;5.776;2023-11-21T06:59:07;9.38;;;4.63;;
36989;SDS011;22898;52.102;5.776;2023-11-21T07:01:34;11.63;;;4.32;;
36989;SDS011;22898;52.102;5.776;2023-11-21T07:04:04;13.25;;;5.10;;
36989;SDS011;22898;52.102;5.776;2023-11-21T07:06:31;7.85;;;3.75;;
36989;SDS011;22898;52.102;5.776;2023-11-21T07:08:56;14.52;;;5.20;;
36989;SDS011;22898;52.102;5.776;2023-11-21T07:11:23;13.95;;;4.72;;
36989;SDS011;22898;52.102;5.776;2023-11-21T07:13:50;13.05;;;5.10;;
36989;SDS011;22898;52.102;5.776;2023-11-21T07:16:15;8.43;;;4.45;;
36989;SDS011;22898;52.102;5.776;2023-11-21T07:18:41;13.68;;;4.97;;
36989;SDS011;22898;52.102;5.776;2023-11-21T07:21:07;11.35;;;4.43;;
36989;SDS011;22898;52.102;5.776;2023-11-21T07:23:33;14.73;;;6.38;;
36989;SDS011;22898;52.102;5.776;2023-11-21T07:25:59;11.32;;;5.70;;
36989;SDS011;22898;52.102;5.776;2023-11-21T07:28:25;20.60;;;7.50;;
36989;SDS011;22898;52.102;5.776;2023-11-21T07:30:51;16.85;;;6.47;;
36989;SDS011;22898;52.102;5.776;2023-11-21T07:33:17;14.98;;;6.53;;
36989;SDS011;22898;52.102;5.776;2023-11-21T07:35:42;11.48;;;5.43;;
36989;SDS011;22898;52.102;5.776;2023-11-21T07:38:08;11.23;;;5.18;;
36989;SDS011;22898;52.102;5.776;2023-11-21T07:40:34;12.38;;;6.30;;
36989;SDS011;22898;52.102;5.776;2023-11-21T07:42:59;11.52;;;5.10;;
36989;SDS011;22898;52.102;5.776;2023-11-21T07:45:25;15.50;;;6.88;;
36989;SDS011;22898;52.102;5.776;2023-11-21T07:47:53;14.40;;;5.30;;
36989;SDS011;22898;52.102;5.776;2023-11-21T07:50:20;12.85;;;5.13;;
36989;SDS011;22898;52.102;5.776;2023-11-21T07:52:47;13.00;;;5.07;;
36989;SDS011;22898;52.102;5.776;2023-11-21T07:55:14;11.88;;;5.70;;
36989;SDS011;22898;52.102;5.776;2023-11-21T07:57:40;10.52;;;5.18;;
36989;SDS011;22898;52.102;5.776;2023-11-21T08:00:06;11.10;;;5.32;;
36989;SDS011;22898;52.102;5.776;2023-11-21T08:02:37;9.38;;;4.57;;
36989;SDS011;22898;52.102;5.776;2023-11-21T08:05:10;13.65;;;5.28;;
36989;SDS011;22898;52.102;5.776;2023-11-21T08:07:37;14.88;;;6.00;;
36989;SDS011;22898;52.102;5.776;2023-11-21T08:10:02;10.30;;;5.20;;
36989;SDS011;22898;52.102;5.776;2023-11-21T08:12:29;16.60;;;5.47;;
36989;SDS011;22898;52.102;5.776;2023-11-21T08:14:55;14.20;;;5.28;;
36989;SDS011;22898;52.102;5.776;2023-11-21T08:17:21;16.10;;;6.88;;
36989;SDS011;22898;52.102;5.776;2023-11-21T08:19:47;18.33;;;6.20;;
36989;SDS011;22898;52.102;5.776;2023-11-21T08:22:15;9.00;;;4.70;;
36989;SDS011;22898;52.102;5.776;2023-11-21T08:24:42;16.50;;;6.60;;
36989;SDS011;22898;52.102;5.776;2023-11-21T08:27:08;15.88;;;6.25;;
36989;SDS011;22898;52.102;5.776;2023-11-21T08:29:34;15.18;;;7.00;;
36989;SDS011;22898;52.102;5.776;2023-11-21T08:32:01;14.90;;;6.05;;
36989;SDS011;22898;52.102;5.776;2023-11-21T08:34:27;21.90;;;6.18;;
36989;SDS011;22898;52.102;5.776;2023-11-21T08:36:53;15.18;;;6.03;;
36989;SDS011;22898;52.102;5.776;2023-11-21T08:39:20;21.88;;;7.30;;
36989;SDS011;22898;52.102;5.776;2023-11-21T08:41:49;17.48;;;6.28;;
36989;SDS011;22898;52.102;5.776;2023-11-21T08:44:15;12.75;;;6.00;;
36989;SDS011;22898;52.102;5.776;2023-11-21T08:46:43;12.30;;;5.53;;
36989;SDS011;22898;52.102;5.776;2023-11-21T08:49:10;17.13;;;6.95;;
36989;SDS011;22898;52.102;5.776;2023-11-21T08:51:36;22.42;;;7.15;;
36989;SDS011;22898;52.102;5.776;2023-11-21T08:54:02;17.17;;;7.53;;
36989;SDS011;22898;52.102;5.776;2023-11-21T08:56:32;17.85;;;6.82;;
36989;SDS011;22898;52.102;5.776;2023-11-21T08:58:57;18.38;;;7.00;;
36989;SDS011;22898;52.102;5.776;2023-11-21T09:01:23;19.77;;;6.65;;
36989;SDS011;22898;52.102;5.776;2023-11-21T09:03:49;20.10;;;7.43;;
36989;SDS011;22898;52.102;5.776;2023-11-21T09:06:15;14.77;;;6.72;;
36989;SDS011;22898;52.102;5.776;2023-11-21T09:08:41;18.90;;;7.60;;
36989;SDS011;22898;52.102;5.776;2023-11-21T09:11:07;16.40;;;6.07;;
36989;SDS011;22898;52.102;5.776;2023-11-21T09:13:33;16.95;;;6.80;;
36989;SDS011;22898;52.102;5.776;2023-11-21T09:15:59;21.98;;;7.60;;
36989;SDS011;22898;52.102;5.776;2023-11-21T09:18:25;25.10;;;7.90;;
36989;SDS011;22898;52.102;5.776;2023-11-21T09:20:50;16.33;;;7.20;;
36989;SDS011;22898;52.102;5.776;2023-11-21T09:23:16;20.85;;;7.60;;
36989;SDS011;22898;52.102;5.776;2023-11-21T09:25:42;21.13;;;7.05;;
36989;SDS011;22898;52.102;5.776;2023-11-21T09:28:11;18.20;;;7.50;;
36989;SDS011;22898;52.102;5.776;2023-11-21T09:30:37;15.02;;;6.82;;
36989;SDS011;22898;52.102;5.776;2023-11-21T09:33:03;13.43;;;6.70;;
36989;SDS011;22898;52.102;5.776;2023-11-21T09:35:32;15.90;;;6.75;;
36989;SDS011;22898;52.102;5.776;2023-11-21T09:37:57;15.23;;;6.70;;
36989;SDS011;22898;52.102;5.776;2023-11-21T09:40:23;13.18;;;6.25;;
36989;SDS011;22898;52.102;5.776;2023-11-21T09:42:52;13.15;;;6.80;;
36989;SDS011;22898;52.102;5.776;2023-11-21T09:47:52;15.48;;;6.55;;
36989;SDS011;22898;52.102;5.776;2023-11-21T09:50:20;16.90;;;7.32;;
36989;SDS011;22898;52.102;5.776;2023-11-21T09:55:19;14.70;;;6.35;;
36989;SDS011;22898;52.102;5.776;2023-11-21T09:57:46;15.38;;;7.28;;
36989;SDS011;22898;52.102;5.776;2023-11-21T10:00:13;15.95;;;6.78;;
36989;SDS011;22898;52.102;5.776;2023-11-21T10:02:42;14.68;;;6.03;;
36989;SDS011;22898;52.102;5.776;2023-11-21T10:05:09;13.80;;;6.00;;
36989;SDS011;22898;52.102;5.776;2023-11-21T10:07:36;12.90;;;5.45;;
36989;SDS011;22898;52.102;5.776;2023-11-21T10:10:04;13.30;;;6.03;;
36989;SDS011;22898;52.102;5.776;2023-11-21T10:12:30;10.93;;;5.72;;
36989;SDS011;22898;52.102;5.776;2023-11-21T10:14:57;11.93;;;6.38;;
36989;SDS011;22898;52.102;5.776;2023-11-21T10:17:25;11.63;;;5.90;;
36989;SDS011;22898;52.102;5.776;2023-11-21T10:19:55;13.23;;;5.30;;
36989;SDS011;22898;52.102;5.776;2023-11-21T10:22:22;11.35;;;5.50;;
36989;SDS011;22898;52.102;5.776;2023-11-21T10:24:49;14.05;;;4.85;;
36989;SDS011;22898;52.102;5.776;2023-11-21T10:27:14;10.95;;;4.85;;
36989;SDS011;22898;52.102;5.776;2023-11-21T10:29:40;12.15;;;5.55;;
36989;SDS011;22898;52.102;5.776;2023-11-21T10:32:06;14.85;;;6.05;;
36989;SDS011;22898;52.102;5.776;2023-11-21T10:34:32;20.88;;;7.10;;
36989;SDS011;22898;52.102;5.776;2023-11-21T10:36:58;14.15;;;6.28;;
36989;SDS011;22898;52.102;5.776;2023-11-21T10:39:36;14.55;;;5.57;;
36989;SDS011;22898;52.102;5.776;2023-11-21T10:42:02;17.33;;;5.70;;
36989;SDS011;22898;52.102;5.776;2023-11-21T10:44:27;12.95;;;6.35;;
36989;SDS011;22898;52.102;5.776;2023-11-21T10:46:54;14.52;;;5.05;;
36989;SDS011;22898;52.102;5.776;2023-11-21T10:49:24;11.70;;;5.32;;
36989;SDS011;22898;52.102;5.776;2023-11-21T10:51:51;12.45;;;5.70;;
36989;SDS011;22898;52.102;5.776;2023-11-21T10:54:21;14.25;;;5.80;;
36989;SDS011;22898;52.102;5.776;2023-11-21T10:56:48;17.63;;;6.85;;
36989;SDS011;22898;52.102;5.776;2023-11-21T10:59:18;11.70;;;6.00;;
36989;SDS011;22898;52.102;5.776;2023-11-21T11:01:46;11.80;;;5.43;;
36989;SDS011;22898;52.102;5.776;2023-11-21T11:04:15;17.35;;;5.97;;
36989;SDS011;22898;52.102;5.776;2023-11-21T11:06:43;13.20;;;5.90;;
36989;SDS011;22898;52.102;5.776;2023-11-21T11:09:13;13.70;;;6.22;;
36989;SDS011;22898;52.102;5.776;2023-11-21T11:11:39;17.30;;;6.88;;
36989;SDS011;22898;52.102;5.776;2023-11-21T11:14:07;14.73;;;6.00;;
36989;SDS011;22898;52.102;5.776;2023-11-21T11:16:36;14.50;;;5.22;;
36989;SDS011;22898;52.102;5.776;2023-11-21T11:19:05;11.93;;;5.28;;
36989;SDS011;22898;52.102;5.776;2023-11-21T11:21:35;9.05;;;3.88;;
36989;SDS011;22898;52.102;5.776;2023-11-21T11:26:42;9.55;;;4.28;;
36989;SDS011;22898;52.102;5.776;2023-11-21T11:29:35;9.30;;;3.85;;
36989;SDS011;22898;52.102;5.776;2023-11-21T11:35:03;9.40;;;3.42;;
36989;SDS011;22898;52.102;5.776;2023-11-21T11:37:35;7.07;;;3.17;;
36989;SDS011;22898;52.102;5.776;2023-11-21T11:40:01;6.25;;;3.47;;
36989;SDS011;22898;52.102;5.776;2023-11-21T11:42:32;11.75;;;4.28;;
36989;SDS011;22898;52.102;5.776;2023-11-21T11:44:57;12.40;;;5.30;;
36989;SDS011;22898;52.102;5.776;2023-11-21T11:47:30;13.90;;;5.00;;
36989;SDS011;22898;52.102;5.776;2023-11-21T11:50:06;11.02;;;4.63;;
36989;SDS011;22898;52.102;5.776;2023-11-21T11:52:51;9.55;;;4.43;;
36989;SDS011;22898;52.102;5.776;2023-11-21T11:55:22;10.13;;;4.30;;
36989;SDS011;22898;52.102;5.776;2023-11-21T11:57:49;10.55;;;5.40;;
36989;SDS011;22898;52.102;5.776;2023-11-21T12:00:18;9.35;;;4.25;;
36989;SDS011;22898;52.102;5.776;2023-11-21T12:02:57;9.30;;;4.80;;
36989;SDS011;22898;52.102;5.776;2023-11-21T12:05:25;9.85;;;4.65;;
36989;SDS011;22898;52.102;5.776;2023-11-21T12:07:55;10.45;;;4.78;;
36989;SDS011;22898;52.102;5.776;2023-11-21T12:10:25;15.98;;;5.45;;
36989;SDS011;22898;52.102;5.776;2023-11-21T12:13:00;8.95;;;4.43;;
36989;SDS011;22898;52.102;5.776;2023-11-21T12:15:33;12.27;;;5.63;;
36989;SDS011;22898;52.102;5.776;2023-11-21T12:18:00;13.20;;;5.38;;
36989;SDS011;22898;52.102;5.776;2023-11-21T12:20:26;10.07;;;5.63;;
36989;SDS011;22898;52.102;5.776;2023-11-21T12:22:53;15.23;;;6.25;;
36989;SDS011;22898;52.102;5.776;2023-11-21T12:25:23;14.55;;;6.70;;
36989;SDS011;22898;52.102;5.776;2023-11-21T12:27:54;14.55;;;6.50;;
36989;SDS011;22898;52.102;5.776;2023-11-21T12:30:21;15.80;;;6.20;;
36989;SDS011;22898;52.102;5.776;2023-11-21T12:32:49;17.08;;;6.07;;
36989;SDS011;22898;52.102;5.776;2023-11-21T12:35:22;12.43;;;6.25;;
36989;SDS011;22898;52.102;5.776;2023-11-21T12:37:52;13.25;;;6.25;;
36989;SDS011;22898;52.102;5.776;2023-11-21T12:40:20;13.80;;;5.43;;
36989;SDS011;22898;52.102;5.776;2023-11-21T12:42:48;11.00;;;5.72;;
36989;SDS011;22898;52.102;5.776;2023-11-21T12:47:46;12.13;;;6.07;;
36989;SDS011;22898;52.102;5.776;2023-11-21T12:50:15;10.43;;;4.97;;
36989;SDS011;22898;52.102;5.776;2023-11-21T12:52:46;10.68;;;4.63;;
36989;SDS011;22898;52.102;5.776;2023-11-21T12:55:55;10.60;;;5.50;;
36989;SDS011;22898;52.102;5.776;2023-11-21T12:58:02;11.85;;;5.15;;
36989;SDS011;22898;52.102;5.776;2023-11-21T13:00:36;12.63;;;5.03;;
36989;SDS011;22898;52.102;5.776;2023-11-21T13:03:08;11.13;;;5.15;;
36989;SDS011;22898;52.102;5.776;2023-11-21T13:05:37;12.15;;;5.63;;
36989;SDS011;22898;52.102;5.776;2023-11-21T13:08:08;8.60;;;5.10;;
36989;SDS011;22898;52.102;5.776;2023-11-21T13:10:38;11.07;;;5.60;;
36989;SDS011;22898;52.102;5.776;2023-11-21T13:13:06;16.98;;;6.82;;
36989;SDS011;22898;52.102;5.776;2023-11-21T13:15:34;11.32;;;5.82;;
36989;SDS011;22898;52.102;5.776;2023-11-21T13:18:03;11.88;;;5.70;;
36989;SDS011;22898;52.102;5.776;2023-11-21T13:20:29;10.82;;;5.50;;
36989;SDS011;22898;52.102;5.776;2023-11-21T13:22:57;9.60;;;4.82;;
36989;SDS011;22898;52.102;5.776;2023-11-21T13:25:27;10.32;;;5.47;;
36989;SDS011;22898;52.102;5.776;2023-11-21T13:27:54;9.63;;;4.55;;
36989;SDS011;22898;52.102;5.776;2023-11-21T13:30:20;11.55;;;5.10;;
36989;SDS011;22898;52.102;5.776;2023-11-21T13:32:51;10.85;;;5.18;;
36989;SDS011;22898;52.102;5.776;2023-11-21T13:35:17;7.53;;;3.70;;
36989;SDS011;22898;52.102;5.776;2023-11-21T13:37:48;6.47;;;3.20;;
36989;SDS011;22898;52.102;5.776;2023-11-21T13:40:19;11.13;;;3.72;;
36989;SDS011;22898;52.102;5.776;2023-11-21T13:42:47;8.73;;;3.30;;
36989;SDS011;22898;52.102;5.776;2023-11-21T13:45:14;7.10;;;3.65;;
36989;SDS011;22898;52.102;5.776;2023-11-21T13:47:39;10.85;;;4.03;;
36989;SDS011;22898;52.102;5.776;2023-11-21T13:50:06;14.73;;;4.20;;
36989;SDS011;22898;52.102;5.776;2023-11-21T13:52:42;11.35;;;4.10;;
36989;SDS011;22898;52.102;5.776;2023-11-21T13:55:10;13.18;;;4.03;;
36989;SDS011;22898;52.102;5.776;2023-11-21T13:57:40;10.63;;;4.65;;
36989;SDS011;22898;52.102;5.776;2023-11-21T14:00:10;9.27;;;4.15;;
36989;SDS011;22898;52.102;5.776;2023-11-21T14:02:56;13.75;;;3.90;;
36989;SDS011;22898;52.102;5.776;2023-11-21T14:05:26;11.05;;;4.18;;
36989;SDS011;22898;52.102;5.776;2023-11-21T14:07:56;9.70;;;3.95;;
36989;SDS011;22898;52.102;5.776;2023-11-21T14:10:28;15.50;;;4.88;;
36989;SDS011;22898;52.102;5.776;2023-11-21T14:13:02;13.57;;;4.63;;
36989;SDS011;22898;52.102;5.776;2023-11-21T14:15:29;11.40;;;5.03;;
36989;SDS011;22898;52.102;5.776;2023-11-21T14:17:56;11.05;;;5.75;;
36989;SDS011;22898;52.102;5.776;2023-11-21T14:20:21;13.15;;;5.05;;
36989;SDS011;22898;52.102;5.776;2023-11-21T14:22:47;14.38;;;6.63;;
36989;SDS011;22898;52.102;5.776;2023-11-21T14:25:13;13.18;;;5.18;;
36989;SDS011;22898;52.102;5.776;2023-11-21T14:27:39;12.80;;;5.70;;
36989;SDS011;22898;52.102;5.776;2023-11-21T14:30:05;13.50;;;5.15;;
36989;SDS011;22898;52.102;5.776;2023-11-21T14:32:31;16.10;;;6.05;;
36989;SDS011;22898;52.102;5.776;2023-11-21T14:34:57;16.67;;;6.13;;
36989;SDS011;22898;52.102;5.776;2023-11-21T14:37:22;13.77;;;5.60;;
36989;SDS011;22898;52.102;5.776;2023-11-21T14:39:48;14.23;;;5.05;;
36989;SDS011;22898;52.102;5.776;2023-11-21T14:42:14;14.10;;;6.80;;
36989;SDS011;22898;52.102;5.776;2023-11-21T14:44:40;15.23;;;5.40;;
36989;SDS011;22898;52.102;5.776;2023-11-21T14:47:07;15.55;;;7.22;;
36989;SDS011;22898;52.102;5.776;2023-11-21T14:49:43;13.07;;;5.55;;